sensor_id;sensor_type;location;lat;lon;timestamp;P1;durP1;ratioP1;P2;durP2;ratioP2
5977;SDS011;3015;51.390;12.256;2022-12-16T00:00:05;25.67;;;18.13;;
5977;SDS011;3015;51.390;12.256;2022-12-16T00:02:34;25.77;;;16.70;;
5977;SDS011;3015;51.390;12.256;2022-12-16T00:04:59;31.93;;;19.30;;
5977;SDS011;3015;51.390;12.256;2022-12-16T00:07:25;27.90;;;18.07;;
5977;SDS011;3015;51.390;12.256;2022-12-16T00:09:51;29.27;;;18.83;;
5977;SDS011;3015;51.390;12.256;2022-12-16T00:12:16;31.83;;;18.07;;
5977;SDS011;3015;51.390;12.256;2022-12-16T00:14:42;28.63;;;17.57;;
5977;SDS011;3015;51.390;12.256;2022-12-16T00:17:07;25.53;;;19.23;;
5977;SDS011;3015;51.390;12.256;2022-12-16T00:19:33;29.53;;;19.23;;
5977;SDS011;3015;51.390;12.256;2022-12-16T00:21:59;28.03;;;17.57;;
5977;SDS011;3015;51.390;12.256;2022-12-16T00:24:24;24.30;;;18.80;;
5977;SDS011;3015;51.390;12.256;2022-12-16T00:26:50;27.37;;;18.27;;
5977;SDS011;3015;51.390;12.256;2022-12-16T00:29:16;22.60;;;16.93;;
5977;SDS011;3015;51.390;12.256;2022-12-16T00:31:42;27.63;;;17.80;;
5977;SDS011;3015;51.390;12.256;2022-12-16T00:34:11;29.50;;;19.67;;
5977;SDS011;3015;51.390;12.256;2022-12-16T00:36:40;31.77;;;20.52;;
5977;SDS011;3015;51.390;12.256;2022-12-16T00:39:07;25.30;;;19.58;;
5977;SDS011;3015;51.390;12.256;2022-12-16T00:41:33;29.52;;;18.70;;
5977;SDS011;3015;51.390;12.256;2022-12-16T00:43:59;25.83;;;18.20;;
5977;SDS011;3015;51.390;12.256;2022-12-16T00:46:25;29.10;;;20.37;;
5977;SDS011;3015;51.390;12.256;2022-12-16T00:48:50;34.60;;;20.83;;
5977;SDS011;3015;51.390;12.256;2022-12-16T00:51:16;23.67;;;17.83;;
5977;SDS011;3015;51.390;12.256;2022-12-16T00:53:41;25.20;;;20.30;;
5977;SDS011;3015;51.390;12.256;2022-12-16T00:56:08;27.47;;;19.10;;
5977;SDS011;3015;51.390;12.256;2022-12-16T00:58:35;34.80;;;20.98;;
5977;SDS011;3015;51.390;12.256;2022-12-16T01:01:01;30.92;;;19.45;;
5977;SDS011;3015;51.390;12.256;2022-12-16T01:03:28;31.00;;;19.90;;
5977;SDS011;3015;51.390;12.256;2022-12-16T01:05:54;30.97;;;19.90;;
5977;SDS011;3015;51.390;12.256;2022-12-16T01:08:19;33.90;;;19.80;;
5977;SDS011;3015;51.390;12.256;2022-12-16T01:10:49;30.93;;;20.77;;
5977;SDS011;3015;51.390;12.256;2022-12-16T01:13:18;38.50;;;21.50;;
5977;SDS011;3015;51.390;12.256;2022-12-16T01:15:45;35.45;;;21.05;;
5977;SDS011;3015;51.390;12.256;2022-12-16T01:18:10;33.77;;;20.83;;
5977;SDS011;3015;51.390;12.256;2022-12-16T01:20:36;31.60;;;20.60;;
5977;SDS011;3015;51.390;12.256;2022-12-16T01:23:02;32.38;;;21.05;;
5977;SDS011;3015;51.390;12.256;2022-12-16T01:25:28;29.75;;;21.17;;
5977;SDS011;3015;51.390;12.256;2022-12-16T01:27:54;35.87;;;20.00;;
5977;SDS011;3015;51.390;12.256;2022-12-16T01:30:20;28.87;;;21.20;;
5977;SDS011;3015;51.390;12.256;2022-12-16T01:32:46;35.33;;;23.83;;
5977;SDS011;3015;51.390;12.256;2022-12-16T01:35:11;32.80;;;21.83;;
5977;SDS011;3015;51.390;12.256;2022-12-16T01:37:37;27.90;;;19.17;;
5977;SDS011;3015;51.390;12.256;2022-12-16T01:40:03;28.98;;;19.83;;
5977;SDS011;3015;51.390;12.256;2022-12-16T01:42:30;32.78;;;19.35;;
5977;SDS011;3015;51.390;12.256;2022-12-16T01:45:14;34.83;;;21.08;;
5977;SDS011;3015;51.390;12.256;2022-12-16T01:47:49;25.02;;;18.40;;
5977;SDS011;3015;51.390;12.256;2022-12-16T01:50:19;32.25;;;21.17;;
5977;SDS011;3015;51.390;12.256;2022-12-16T01:52:47;28.70;;;18.40;;
5977;SDS011;3015;51.390;12.256;2022-12-16T01:55:18;32.65;;;20.65;;
5977;SDS011;3015;51.390;12.256;2022-12-16T01:57:50;31.42;;;20.10;;
5977;SDS011;3015;51.390;12.256;2022-12-16T02:00:19;28.35;;;20.13;;
5977;SDS011;3015;51.390;12.256;2022-12-16T02:02:45;32.87;;;19.07;;
5977;SDS011;3015;51.390;12.256;2022-12-16T02:05:13;29.80;;;18.85;;
5977;SDS011;3015;51.390;12.256;2022-12-16T02:08:28;31.67;;;19.00;;
5977;SDS011;3015;51.390;12.256;2022-12-16T02:18:59;32.92;;;22.60;;
5977;SDS011;3015;51.390;12.256;2022-12-16T02:21:46;29.40;;;19.77;;
5977;SDS011;3015;51.390;12.256;2022-12-16T02:32:19;37.07;;;20.97;;
5977;SDS011;3015;51.390;12.256;2022-12-16T02:35:01;33.95;;;20.70;;
5977;SDS011;3015;51.390;12.256;2022-12-16T02:40:10;31.98;;;19.77;;
5977;SDS011;3015;51.390;12.256;2022-12-16T02:42:49;31.98;;;19.60;;
5977;SDS011;3015;51.390;12.256;2022-12-16T02:45:20;35.90;;;19.80;;
5977;SDS011;3015;51.390;12.256;2022-12-16T02:47:49;28.60;;;18.10;;
5977;SDS011;3015;51.390;12.256;2022-12-16T02:50:22;27.53;;;19.67;;
5977;SDS011;3015;51.390;12.256;2022-12-16T02:52:54;28.90;;;20.35;;
5977;SDS011;3015;51.390;12.256;2022-12-16T02:55:24;28.75;;;19.23;;
5977;SDS011;3015;51.390;12.256;2022-12-16T03:03:34;33.97;;;21.05;;
5977;SDS011;3015;51.390;12.256;2022-12-16T03:06:21;29.00;;;20.02;;
5977;SDS011;3015;51.390;12.256;2022-12-16T03:08:50;31.27;;;20.42;;
5977;SDS011;3015;51.390;12.256;2022-12-16T03:11:19;26.73;;;19.90;;
5977;SDS011;3015;51.390;12.256;2022-12-16T03:13:45;33.80;;;20.27;;
5977;SDS011;3015;51.390;12.256;2022-12-16T03:16:16;35.95;;;21.17;;
5977;SDS011;3015;51.390;12.256;2022-12-16T03:18:46;27.27;;;18.27;;
5977;SDS011;3015;51.390;12.256;2022-12-16T03:21:19;29.35;;;20.10;;
5977;SDS011;3015;51.390;12.256;2022-12-16T03:24:02;28.70;;;18.38;;
5977;SDS011;3015;51.390;12.256;2022-12-16T03:29:32;29.02;;;18.52;;
5977;SDS011;3015;51.390;12.256;2022-12-16T03:32:22;25.65;;;17.38;;
5977;SDS011;3015;51.390;12.256;2022-12-16T03:34:57;30.88;;;18.42;;
5977;SDS011;3015;51.390;12.256;2022-12-16T03:37:36;30.67;;;19.08;;
5977;SDS011;3015;51.390;12.256;2022-12-16T03:40:02;29.45;;;20.38;;
5977;SDS011;3015;51.390;12.256;2022-12-16T03:42:31;26.35;;;17.30;;
5977;SDS011;3015;51.390;12.256;2022-12-16T03:44:57;33.00;;;19.33;;
5977;SDS011;3015;51.390;12.256;2022-12-16T03:47:26;27.47;;;19.60;;
5977;SDS011;3015;51.390;12.256;2022-12-16T03:49:53;29.30;;;17.90;;
5977;SDS011;3015;51.390;12.256;2022-12-16T03:52:19;23.08;;;16.98;;
5977;SDS011;3015;51.390;12.256;2022-12-16T03:54:45;27.10;;;18.77;;
5977;SDS011;3015;51.390;12.256;2022-12-16T03:57:10;30.13;;;17.67;;
5977;SDS011;3015;51.390;12.256;2022-12-16T03:59:36;33.70;;;19.40;;
5977;SDS011;3015;51.390;12.256;2022-12-16T04:02:02;33.30;;;19.53;;
5977;SDS011;3015;51.390;12.256;2022-12-16T04:04:28;32.53;;;19.73;;
5977;SDS011;3015;51.390;12.256;2022-12-16T04:06:53;30.67;;;19.23;;
5977;SDS011;3015;51.390;12.256;2022-12-16T04:09:37;35.75;;;17.17;;
5977;SDS011;3015;51.390;12.256;2022-12-16T04:12:03;37.77;;;19.70;;
5977;SDS011;3015;51.390;12.256;2022-12-16T04:14:47;24.05;;;17.30;;
5977;SDS011;3015;51.390;12.256;2022-12-16T04:17:32;22.20;;;16.33;;
5977;SDS011;3015;51.390;12.256;2022-12-16T04:20:16;27.70;;;18.10;;
5977;SDS011;3015;51.390;12.256;2022-12-16T04:23:01;19.15;;;15.45;;
5977;SDS011;3015;51.390;12.256;2022-12-16T04:25:46;29.63;;;19.50;;
5977;SDS011;3015;51.390;12.256;2022-12-16T04:28:11;24.93;;;16.30;;
5977;SDS011;3015;51.390;12.256;2022-12-16T04:30:37;30.67;;;16.00;;
5977;SDS011;3015;51.390;12.256;2022-12-16T04:33:10;25.23;;;17.07;;
5977;SDS011;3015;51.390;12.256;2022-12-16T04:35:56;21.65;;;15.02;;
5977;SDS011;3015;51.390;12.256;2022-12-16T04:38:41;19.00;;;14.02;;
5977;SDS011;3015;51.390;12.256;2022-12-16T04:41:25;29.27;;;16.83;;
5977;SDS011;3015;51.390;12.256;2022-12-16T04:44:09;26.20;;;16.60;;
5977;SDS011;3015;51.390;12.256;2022-12-16T04:46:53;24.63;;;16.92;;
5977;SDS011;3015;51.390;12.256;2022-12-16T04:49:37;21.17;;;15.55;;
5977;SDS011;3015;51.390;12.256;2022-12-16T04:52:21;29.48;;;17.90;;
5977;SDS011;3015;51.390;12.256;2022-12-16T04:55:05;26.10;;;16.75;;
5977;SDS011;3015;51.390;12.256;2022-12-16T04:57:51;29.40;;;16.90;;
5977;SDS011;3015;51.390;12.256;2022-12-16T05:00:36;22.33;;;16.55;;
5977;SDS011;3015;51.390;12.256;2022-12-16T05:03:21;26.35;;;16.02;;
5977;SDS011;3015;51.390;12.256;2022-12-16T05:06:05;26.23;;;16.50;;
5977;SDS011;3015;51.390;12.256;2022-12-16T05:08:49;25.35;;;16.85;;
5977;SDS011;3015;51.390;12.256;2022-12-16T05:11:33;29.75;;;20.27;;
5977;SDS011;3015;51.390;12.256;2022-12-16T05:14:17;30.83;;;18.23;;
5977;SDS011;3015;51.390;12.256;2022-12-16T05:17:01;34.17;;;18.85;;
5977;SDS011;3015;51.390;12.256;2022-12-16T05:19:45;28.83;;;17.50;;
5977;SDS011;3015;51.390;12.256;2022-12-16T05:22:29;33.92;;;20.52;;
5977;SDS011;3015;51.390;12.256;2022-12-16T05:25:14;27.70;;;18.38;;
5977;SDS011;3015;51.390;12.256;2022-12-16T05:27:58;33.17;;;18.52;;
5977;SDS011;3015;51.390;12.256;2022-12-16T05:30:42;29.02;;;18.27;;
5977;SDS011;3015;51.390;12.256;2022-12-16T05:33:25;26.60;;;18.67;;
5977;SDS011;3015;51.390;12.256;2022-12-16T05:36:09;23.95;;;17.58;;
5977;SDS011;3015;51.390;12.256;2022-12-16T05:38:53;26.05;;;17.15;;
5977;SDS011;3015;51.390;12.256;2022-12-16T05:41:38;26.17;;;20.23;;
5977;SDS011;3015;51.390;12.256;2022-12-16T05:44:22;25.58;;;19.30;;
5977;SDS011;3015;51.390;12.256;2022-12-16T05:47:07;38.13;;;21.95;;
5977;SDS011;3015;51.390;12.256;2022-12-16T05:49:51;23.98;;;16.83;;
5977;SDS011;3015;51.390;12.256;2022-12-16T05:52:35;30.58;;;19.70;;
5977;SDS011;3015;51.390;12.256;2022-12-16T05:55:20;18.48;;;16.25;;
5977;SDS011;3015;51.390;12.256;2022-12-16T05:58:04;23.38;;;17.52;;
5977;SDS011;3015;51.390;12.256;2022-12-16T06:00:50;28.67;;;16.95;;
5977;SDS011;3015;51.390;12.256;2022-12-16T06:03:34;28.70;;;17.23;;
5977;SDS011;3015;51.390;12.256;2022-12-16T06:06:18;25.85;;;17.60;;
5977;SDS011;3015;51.390;12.256;2022-12-16T06:09:02;30.48;;;20.38;;
5977;SDS011;3015;51.390;12.256;2022-12-16T06:11:48;31.85;;;18.23;;
5977;SDS011;3015;51.390;12.256;2022-12-16T06:14:33;26.73;;;17.42;;
5977;SDS011;3015;51.390;12.256;2022-12-16T06:17:17;34.42;;;21.33;;
5977;SDS011;3015;51.390;12.256;2022-12-16T06:20:01;29.70;;;21.30;;
5977;SDS011;3015;51.390;12.256;2022-12-16T06:22:52;28.33;;;19.50;;
5977;SDS011;3015;51.390;12.256;2022-12-16T06:25:37;27.13;;;19.15;;
5977;SDS011;3015;51.390;12.256;2022-12-16T06:28:21;28.63;;;18.33;;
5977;SDS011;3015;51.390;12.256;2022-12-16T06:31:05;30.30;;;19.25;;
5977;SDS011;3015;51.390;12.256;2022-12-16T06:33:50;27.33;;;17.25;;
5977;SDS011;3015;51.390;12.256;2022-12-16T06:36:35;28.58;;;18.98;;
5977;SDS011;3015;51.390;12.256;2022-12-16T06:39:19;38.80;;;21.65;;
5977;SDS011;3015;51.390;12.256;2022-12-16T06:42:03;34.17;;;20.70;;
5977;SDS011;3015;51.390;12.256;2022-12-16T06:44:47;39.95;;;24.38;;
5977;SDS011;3015;51.390;12.256;2022-12-16T06:47:31;40.35;;;22.50;;
5977;SDS011;3015;51.390;12.256;2022-12-16T06:50:15;42.08;;;24.17;;
5977;SDS011;3015;51.390;12.256;2022-12-16T06:52:59;32.55;;;21.30;;
5977;SDS011;3015;51.390;12.256;2022-12-16T06:55:43;33.25;;;21.58;;
5977;SDS011;3015;51.390;12.256;2022-12-16T06:58:38;31.73;;;18.65;;
5977;SDS011;3015;51.390;12.256;2022-12-16T07:01:22;44.53;;;22.77;;
5977;SDS011;3015;51.390;12.256;2022-12-16T07:04:11;33.42;;;21.83;;
5977;SDS011;3015;51.390;12.256;2022-12-16T07:06:55;43.25;;;24.00;;
5977;SDS011;3015;51.390;12.256;2022-12-16T07:09:39;44.25;;;24.25;;
5977;SDS011;3015;51.390;12.256;2022-12-16T07:12:23;28.05;;;20.73;;
5977;SDS011;3015;51.390;12.256;2022-12-16T07:15:07;29.60;;;21.60;;
5977;SDS011;3015;51.390;12.256;2022-12-16T07:17:52;39.58;;;21.77;;
5977;SDS011;3015;51.390;12.256;2022-12-16T07:20:36;36.88;;;23.10;;
5977;SDS011;3015;51.390;12.256;2022-12-16T07:23:20;31.27;;;19.98;;
5977;SDS011;3015;51.390;12.256;2022-12-16T07:26:04;35.13;;;20.77;;
5977;SDS011;3015;51.390;12.256;2022-12-16T07:28:48;43.58;;;23.25;;
5977;SDS011;3015;51.390;12.256;2022-12-16T07:31:32;43.78;;;24.52;;
5977;SDS011;3015;51.390;12.256;2022-12-16T07:34:16;32.78;;;20.58;;
5977;SDS011;3015;51.390;12.256;2022-12-16T07:37:00;38.88;;;23.63;;
5977;SDS011;3015;51.390;12.256;2022-12-16T07:39:44;37.03;;;22.58;;
5977;SDS011;3015;51.390;12.256;2022-12-16T07:42:28;31.40;;;19.27;;
5977;SDS011;3015;51.390;12.256;2022-12-16T07:45:12;30.75;;;21.00;;
5977;SDS011;3015;51.390;12.256;2022-12-16T07:47:56;34.05;;;22.33;;
5977;SDS011;3015;51.390;12.256;2022-12-16T07:50:40;41.35;;;23.20;;
5977;SDS011;3015;51.390;12.256;2022-12-16T07:53:25;38.67;;;24.23;;
5977;SDS011;3015;51.390;12.256;2022-12-16T07:56:09;36.92;;;22.77;;
5977;SDS011;3015;51.390;12.256;2022-12-16T07:58:54;33.10;;;21.45;;
5977;SDS011;3015;51.390;12.256;2022-12-16T08:01:39;33.03;;;21.85;;
5977;SDS011;3015;51.390;12.256;2022-12-16T08:04:23;34.60;;;21.85;;
5977;SDS011;3015;51.390;12.256;2022-12-16T08:07:07;31.63;;;23.30;;
5977;SDS011;3015;51.390;12.256;2022-12-16T08:09:52;40.33;;;23.27;;
5977;SDS011;3015;51.390;12.256;2022-12-16T08:12:36;44.53;;;25.65;;
5977;SDS011;3015;51.390;12.256;2022-12-16T08:15:20;36.17;;;23.75;;
5977;SDS011;3015;51.390;12.256;2022-12-16T08:18:04;37.35;;;23.70;;
5977;SDS011;3015;51.390;12.256;2022-12-16T08:20:48;34.95;;;24.58;;
5977;SDS011;3015;51.390;12.256;2022-12-16T08:23:32;43.15;;;25.55;;
5977;SDS011;3015;51.390;12.256;2022-12-16T08:26:16;40.83;;;24.02;;
5977;SDS011;3015;51.390;12.256;2022-12-16T08:29:00;30.58;;;18.33;;
5977;SDS011;3015;51.390;12.256;2022-12-16T08:31:44;37.83;;;22.73;;
5977;SDS011;3015;51.390;12.256;2022-12-16T08:34:28;42.33;;;25.55;;
5977;SDS011;3015;51.390;12.256;2022-12-16T08:37:12;42.88;;;23.67;;
5977;SDS011;3015;51.390;12.256;2022-12-16T08:39:56;47.78;;;25.35;;
5977;SDS011;3015;51.390;12.256;2022-12-16T08:42:40;41.83;;;26.20;;
5977;SDS011;3015;51.390;12.256;2022-12-16T08:45:25;45.88;;;29.80;;
5977;SDS011;3015;51.390;12.256;2022-12-16T08:48:09;46.88;;;28.08;;
5977;SDS011;3015;51.390;12.256;2022-12-16T08:50:54;53.00;;;28.25;;
5977;SDS011;3015;51.390;12.256;2022-12-16T08:53:38;45.42;;;26.77;;
5977;SDS011;3015;51.390;12.256;2022-12-16T08:56:22;42.35;;;26.17;;
5977;SDS011;3015;51.390;12.256;2022-12-16T08:59:06;41.10;;;23.83;;
5977;SDS011;3015;51.390;12.256;2022-12-16T09:01:50;37.55;;;25.08;;
5977;SDS011;3015;51.390;12.256;2022-12-16T09:04:34;37.00;;;26.63;;
5977;SDS011;3015;51.390;12.256;2022-12-16T09:07:18;36.97;;;24.95;;
5977;SDS011;3015;51.390;12.256;2022-12-16T09:10:03;38.50;;;23.00;;
5977;SDS011;3015;51.390;12.256;2022-12-16T09:12:48;36.97;;;23.98;;
5977;SDS011;3015;51.390;12.256;2022-12-16T09:15:32;32.25;;;25.17;;
5977;SDS011;3015;51.390;12.256;2022-12-16T09:18:16;39.75;;;26.00;;
5977;SDS011;3015;51.390;12.256;2022-12-16T09:21:00;34.38;;;24.35;;
5977;SDS011;3015;51.390;12.256;2022-12-16T09:23:44;39.53;;;24.13;;
5977;SDS011;3015;51.390;12.256;2022-12-16T09:26:28;35.50;;;24.52;;
5977;SDS011;3015;51.390;12.256;2022-12-16T09:29:12;41.35;;;25.55;;
5977;SDS011;3015;51.390;12.256;2022-12-16T09:31:57;40.80;;;26.17;;
5977;SDS011;3015;51.390;12.256;2022-12-16T09:34:41;40.50;;;26.05;;
5977;SDS011;3015;51.390;12.256;2022-12-16T09:37:25;40.45;;;24.70;;
5977;SDS011;3015;51.390;12.256;2022-12-16T09:40:13;42.75;;;24.30;;
5977;SDS011;3015;51.390;12.256;2022-12-16T09:43:19;38.97;;;25.30;;
5977;SDS011;3015;51.390;12.256;2022-12-16T09:46:28;49.28;;;28.95;;
5977;SDS011;3015;51.390;12.256;2022-12-16T09:52:26;42.97;;;27.05;;
5977;SDS011;3015;51.390;12.256;2022-12-16T09:55:31;40.58;;;27.65;;
5977;SDS011;3015;51.390;12.256;2022-12-16T09:58:19;46.50;;;28.50;;
5977;SDS011;3015;51.390;12.256;2022-12-16T10:01:08;45.28;;;28.38;;
5977;SDS011;3015;51.390;12.256;2022-12-16T10:03:55;48.35;;;29.90;;
5977;SDS011;3015;51.390;12.256;2022-12-16T10:21:40;47.63;;;30.27;;
5977;SDS011;3015;51.390;12.256;2022-12-16T10:24:54;38.10;;;28.30;;
5977;SDS011;3015;51.390;12.256;2022-12-16T10:27:51;41.22;;;27.42;;
5977;SDS011;3015;51.390;12.256;2022-12-16T10:30:43;35.97;;;26.85;;
5977;SDS011;3015;51.390;12.256;2022-12-16T10:33:27;42.53;;;29.40;;
5977;SDS011;3015;51.390;12.256;2022-12-16T10:36:16;31.25;;;25.83;;
5977;SDS011;3015;51.390;12.256;2022-12-16T10:39:08;38.13;;;28.10;;
5977;SDS011;3015;51.390;12.256;2022-12-16T10:42:19;36.25;;;28.33;;
5977;SDS011;3015;51.390;12.256;2022-12-16T10:45:20;38.08;;;28.60;;
5977;SDS011;3015;51.390;12.256;2022-12-16T10:48:26;36.03;;;29.67;;
5977;SDS011;3015;51.390;12.256;2022-12-16T10:51:14;44.17;;;29.17;;
5977;SDS011;3015;51.390;12.256;2022-12-16T10:54:00;38.63;;;29.88;;
5977;SDS011;3015;51.390;12.256;2022-12-16T11:00:44;39.22;;;30.17;;
5977;SDS011;3015;51.390;12.256;2022-12-16T11:03:32;37.28;;;28.52;;
5977;SDS011;3015;51.390;12.256;2022-12-16T11:06:21;41.45;;;31.02;;
5977;SDS011;3015;51.390;12.256;2022-12-16T11:09:27;38.38;;;30.95;;
5977;SDS011;3015;51.390;12.256;2022-12-16T11:12:26;37.70;;;31.23;;
5977;SDS011;3015;51.390;12.256;2022-12-16T11:18:16;44.90;;;31.90;;
5977;SDS011;3015;51.390;12.256;2022-12-16T11:24:13;39.72;;;30.48;;
5977;SDS011;3015;51.390;12.256;2022-12-16T11:27:01;42.42;;;30.80;;
5977;SDS011;3015;51.390;12.256;2022-12-16T11:29:57;43.28;;;30.77;;
5977;SDS011;3015;51.390;12.256;2022-12-16T11:32:56;38.95;;;31.13;;
5977;SDS011;3015;51.390;12.256;2022-12-16T11:35:43;37.25;;;29.80;;
5977;SDS011;3015;51.390;12.256;2022-12-16T11:38:41;37.53;;;30.33;;
5977;SDS011;3015;51.390;12.256;2022-12-16T11:41:35;37.47;;;30.95;;
5977;SDS011;3015;51.390;12.256;2022-12-16T11:44:34;39.05;;;31.60;;
5977;SDS011;3015;51.390;12.256;2022-12-16T11:50:29;48.17;;;34.08;;
5977;SDS011;3015;51.390;12.256;2022-12-16T11:56:25;44.72;;;32.75;;
5977;SDS011;3015;51.390;12.256;2022-12-16T11:59:24;45.88;;;34.05;;
5977;SDS011;3015;51.390;12.256;2022-12-16T12:02:20;40.20;;;31.73;;
5977;SDS011;3015;51.390;12.256;2022-12-16T12:05:13;42.55;;;33.67;;
5977;SDS011;3015;51.390;12.256;2022-12-16T12:08:06;43.78;;;34.15;;
5977;SDS011;3015;51.390;12.256;2022-12-16T12:13:59;45.60;;;32.70;;
5977;SDS011;3015;51.390;12.256;2022-12-16T12:16:59;49.30;;;35.03;;
5977;SDS011;3015;51.390;12.256;2022-12-16T12:22:53;48.28;;;34.85;;
5977;SDS011;3015;51.390;12.256;2022-12-16T12:26:02;37.85;;;32.75;;
5977;SDS011;3015;51.390;12.256;2022-12-16T12:29:08;44.33;;;34.00;;
5977;SDS011;3015;51.390;12.256;2022-12-16T12:35:24;44.33;;;36.45;;
5977;SDS011;3015;51.390;12.256;2022-12-16T12:38:17;45.42;;;37.95;;
5977;SDS011;3015;51.390;12.256;2022-12-16T12:41:09;46.33;;;35.92;;
5977;SDS011;3015;51.390;12.256;2022-12-16T12:44:34;44.53;;;35.75;;
5977;SDS011;3015;51.390;12.256;2022-12-16T12:47:25;47.13;;;34.42;;
5977;SDS011;3015;51.390;12.256;2022-12-16T12:50:22;47.28;;;34.85;;
5977;SDS011;3015;51.390;12.256;2022-12-16T13:02:52;42.28;;;34.20;;
5977;SDS011;3015;51.390;12.256;2022-12-16T13:05:52;44.75;;;35.05;;
5977;SDS011;3015;51.390;12.256;2022-12-16T13:11:37;51.55;;;37.63;;
5977;SDS011;3015;51.390;12.256;2022-12-16T13:21:03;48.17;;;37.65;;
5977;SDS011;3015;51.390;12.256;2022-12-16T13:24:27;48.95;;;35.50;;
5977;SDS011;3015;51.390;12.256;2022-12-16T13:27:18;45.60;;;33.80;;
5977;SDS011;3015;51.390;12.256;2022-12-16T13:30:15;46.55;;;36.97;;
5977;SDS011;3015;51.390;12.256;2022-12-16T13:33:07;46.33;;;36.53;;
5977;SDS011;3015;51.390;12.256;2022-12-16T13:36:04;46.45;;;32.60;;
5977;SDS011;3015;51.390;12.256;2022-12-16T13:38:50;44.83;;;33.70;;
5977;SDS011;3015;51.390;12.256;2022-12-16T13:50:37;47.58;;;34.65;;
5977;SDS011;3015;51.390;12.256;2022-12-16T13:53:27;45.50;;;33.42;;
5977;SDS011;3015;51.390;12.256;2022-12-16T13:56:45;46.67;;;34.22;;
5977;SDS011;3015;51.390;12.256;2022-12-16T13:59:34;43.97;;;34.15;;
5977;SDS011;3015;51.390;12.256;2022-12-16T14:05:28;40.10;;;32.47;;
5977;SDS011;3015;51.390;12.256;2022-12-16T14:08:19;46.78;;;34.33;;
5977;SDS011;3015;51.390;12.256;2022-12-16T14:14:30;44.28;;;32.60;;
5977;SDS011;3015;51.390;12.256;2022-12-16T14:17:25;44.38;;;33.60;;
5977;SDS011;3015;51.390;12.256;2022-12-16T14:26:44;45.28;;;33.80;;
5977;SDS011;3015;51.390;12.256;2022-12-16T14:29:28;43.88;;;32.72;;
5977;SDS011;3015;51.390;12.256;2022-12-16T14:32:25;45.78;;;35.72;;
5977;SDS011;3015;51.390;12.256;2022-12-16T14:35:16;47.88;;;33.28;;
5977;SDS011;3015;51.390;12.256;2022-12-16T14:38:24;51.67;;;34.85;;
5977;SDS011;3015;51.390;12.256;2022-12-16T14:41:11;46.88;;;34.90;;
5977;SDS011;3015;51.390;12.256;2022-12-16T14:44:16;47.58;;;34.05;;
5977;SDS011;3015;51.390;12.256;2022-12-16T14:47:04;55.10;;;37.53;;
5977;SDS011;3015;51.390;12.256;2022-12-16T14:49:58;41.47;;;32.50;;
5977;SDS011;3015;51.390;12.256;2022-12-16T14:52:42;45.42;;;33.05;;
5977;SDS011;3015;51.390;12.256;2022-12-16T14:55:27;45.40;;;35.15;;
5977;SDS011;3015;51.390;12.256;2022-12-16T14:58:14;46.72;;;32.55;;
5977;SDS011;3015;51.390;12.256;2022-12-16T15:01:01;50.38;;;35.22;;
5977;SDS011;3015;51.390;12.256;2022-12-16T15:03:55;43.90;;;31.80;;
5977;SDS011;3015;51.390;12.256;2022-12-16T15:06:40;47.47;;;33.00;;
5977;SDS011;3015;51.390;12.256;2022-12-16T15:12:11;46.83;;;32.65;;
5977;SDS011;3015;51.390;12.256;2022-12-16T15:14:57;43.55;;;32.00;;
5977;SDS011;3015;51.390;12.256;2022-12-16T15:17:45;42.80;;;31.73;;
5977;SDS011;3015;51.390;12.256;2022-12-16T15:20:33;46.30;;;30.70;;
5977;SDS011;3015;51.390;12.256;2022-12-16T15:23:27;45.67;;;31.83;;
5977;SDS011;3015;51.390;12.256;2022-12-16T15:29:01;44.08;;;30.83;;
5977;SDS011;3015;51.390;12.256;2022-12-16T15:31:45;49.75;;;35.20;;
5977;SDS011;3015;51.390;12.256;2022-12-16T15:34:45;48.70;;;33.55;;
5977;SDS011;3015;51.390;12.256;2022-12-16T15:37:35;44.85;;;31.35;;
5977;SDS011;3015;51.390;12.256;2022-12-16T15:40:23;45.55;;;32.95;;
5977;SDS011;3015;51.390;12.256;2022-12-16T15:43:28;49.25;;;33.47;;
5977;SDS011;3015;51.390;12.256;2022-12-16T15:46:18;45.05;;;30.75;;
5977;SDS011;3015;51.390;12.256;2022-12-16T15:49:18;42.40;;;31.85;;
5977;SDS011;3015;51.390;12.256;2022-12-16T15:52:30;55.70;;;29.90;;
5977;SDS011;3015;51.390;12.256;2022-12-16T15:55:41;44.67;;;31.55;;
5977;SDS011;3015;51.390;12.256;2022-12-16T15:58:43;47.65;;;32.25;;
5977;SDS011;3015;51.390;12.256;2022-12-16T16:01:27;44.78;;;31.35;;
5977;SDS011;3015;51.390;12.256;2022-12-16T16:04:24;40.60;;;29.10;;
5977;SDS011;3015;51.390;12.256;2022-12-16T16:07:20;50.22;;;30.80;;
5977;SDS011;3015;51.390;12.256;2022-12-16T16:10:28;44.92;;;32.05;;
5977;SDS011;3015;51.390;12.256;2022-12-16T16:13:11;36.70;;;28.83;;
5977;SDS011;3015;51.390;12.256;2022-12-16T16:15:55;36.38;;;27.42;;
5977;SDS011;3015;51.390;12.256;2022-12-16T16:18:40;41.75;;;29.63;;
5977;SDS011;3015;51.390;12.256;2022-12-16T16:21:25;46.63;;;30.60;;
5977;SDS011;3015;51.390;12.256;2022-12-16T16:24:10;46.35;;;31.02;;
5977;SDS011;3015;51.390;12.256;2022-12-16T16:26:55;48.35;;;33.00;;
5977;SDS011;3015;51.390;12.256;2022-12-16T16:29:42;46.53;;;31.38;;
5977;SDS011;3015;51.390;12.256;2022-12-16T16:32:26;39.97;;;31.05;;
5977;SDS011;3015;51.390;12.256;2022-12-16T16:35:10;41.55;;;32.72;;
5977;SDS011;3015;51.390;12.256;2022-12-16T16:37:55;41.85;;;30.42;;
5977;SDS011;3015;51.390;12.256;2022-12-16T16:40:40;34.08;;;27.38;;
5977;SDS011;3015;51.390;12.256;2022-12-16T16:43:26;35.30;;;30.15;;
5977;SDS011;3015;51.390;12.256;2022-12-16T16:46:18;40.88;;;29.15;;
5977;SDS011;3015;51.390;12.256;2022-12-16T16:49:23;40.50;;;27.92;;
5977;SDS011;3015;51.390;12.256;2022-12-16T16:52:16;35.33;;;28.42;;
5977;SDS011;3015;51.390;12.256;2022-12-16T16:55:01;44.47;;;31.17;;
5977;SDS011;3015;51.390;12.256;2022-12-16T16:57:46;42.28;;;28.30;;
5977;SDS011;3015;51.390;12.256;2022-12-16T17:00:31;37.70;;;28.55;;
5977;SDS011;3015;51.390;12.256;2022-12-16T17:03:15;42.58;;;28.75;;
5977;SDS011;3015;51.390;12.256;2022-12-16T17:05:59;36.42;;;29.10;;
5977;SDS011;3015;51.390;12.256;2022-12-16T17:08:43;34.63;;;30.30;;
5977;SDS011;3015;51.390;12.256;2022-12-16T17:11:27;45.67;;;31.67;;
5977;SDS011;3015;51.390;12.256;2022-12-16T17:14:12;45.22;;;31.25;;
5977;SDS011;3015;51.390;12.256;2022-12-16T17:16:58;42.17;;;30.92;;
5977;SDS011;3015;51.390;12.256;2022-12-16T17:19:43;39.25;;;29.67;;
5977;SDS011;3015;51.390;12.256;2022-12-16T17:22:27;38.50;;;29.58;;
5977;SDS011;3015;51.390;12.256;2022-12-16T17:25:11;43.60;;;29.40;;
5977;SDS011;3015;51.390;12.256;2022-12-16T17:27:56;42.63;;;29.80;;
5977;SDS011;3015;51.390;12.256;2022-12-16T17:30:41;44.78;;;30.52;;
5977;SDS011;3015;51.390;12.256;2022-12-16T17:33:25;42.28;;;31.35;;
5977;SDS011;3015;51.390;12.256;2022-12-16T17:36:12;42.45;;;32.00;;
5977;SDS011;3015;51.390;12.256;2022-12-16T17:38:58;45.47;;;29.48;;
5977;SDS011;3015;51.390;12.256;2022-12-16T17:41:42;45.35;;;33.17;;
5977;SDS011;3015;51.390;12.256;2022-12-16T17:44:26;49.83;;;33.35;;
5977;SDS011;3015;51.390;12.256;2022-12-16T17:47:11;47.92;;;32.53;;
5977;SDS011;3015;51.390;12.256;2022-12-16T17:49:55;49.47;;;32.70;;
5977;SDS011;3015;51.390;12.256;2022-12-16T17:52:39;43.97;;;30.70;;
5977;SDS011;3015;51.390;12.256;2022-12-16T17:55:23;41.92;;;31.95;;
5977;SDS011;3015;51.390;12.256;2022-12-16T17:58:08;48.10;;;31.13;;
5977;SDS011;3015;51.390;12.256;2022-12-16T18:00:52;48.22;;;34.42;;
5977;SDS011;3015;51.390;12.256;2022-12-16T18:03:36;58.40;;;33.83;;
5977;SDS011;3015;51.390;12.256;2022-12-16T18:06:20;49.90;;;34.75;;